Time;durP1;ratioP1;P1;durP2;ratioP2;P2;SDS_P1;SDS_P2;PMS_P1;PMS_P2;Temp;Humidity;BMP_temperature;BMP_pressure;BME280_temperature;BME280_humidity;BME280_pressure;Samples;Min_cycle;Max_cycle;Signal;HPM_P1;HPM_P2
2021/07/22 00:02:25;;;;;;;12.02;7.35;;;17.60;99.90;;;;;;4918125;29;20035;-87
2021/07/22 00:04:51;;;;;;;11.68;7.25;;;17.60;99.90;;;;;;4933958;29;20288;-86
2021/07/22 00:07:17;;;;;;;11.30;7.53;;;17.60;99.90;;;;;;4917730;29;20372;-87
2021/07/22 00:09:44;;;;;;;8.85;6.72;;;17.60;99.90;;;;;;4917837;29;20034;-86
2021/07/22 00:12:11;;;;;;;11.40;7.50;;;17.60;99.90;;;;;;4917958;29;20032;-86
2021/07/22 00:14:38;;;;;;;12.13;7.82;;;17.60;99.90;;;;;;4918026;29;20034;-87
2021/07/22 00:17:05;;;;;;;13.48;7.38;;;17.50;99.90;;;;;;4934012;29;20042;-86
2021/07/22 00:19:31;;;;;;;11.38;7.10;;;17.50;99.90;;;;;;4917578;29;20032;-87
2021/07/22 00:21:58;;;;;;;11.63;7.38;;;17.50;99.90;;;;;;4933248;29;20059;-86
2021/07/22 00:24:24;;;;;;;11.30;7.10;;;17.40;99.90;;;;;;4933408;29;20035;-87
2021/07/22 00:26:50;;;;;;;9.82;7.40;;;17.40;99.90;;;;;;4917502;29;20038;-86
2021/07/22 00:29:15;;;;;;;9.48;6.72;;;17.30;99.90;;;;;;4933136;29;20027;-86
2021/07/22 00:31:41;;;;;;;11.25;6.95;;;17.30;99.90;;;;;;4917505;29;20155;-86
2021/07/22 00:34:07;;;;;;;12.35;7.43;;;17.30;99.90;;;;;;4933217;29;20103;-86
2021/07/22 00:36:32;;;;;;;9.05;6.18;;;17.20;99.90;;;;;;4917343;29;20035;-86
2021/07/22 00:38:58;;;;;;;9.93;6.55;;;17.20;99.90;;;;;;4917330;29;20038;-86
2021/07/22 00:41:24;;;;;;;10.00;7.07;;;17.20;99.90;;;;;;4917115;29;20052;-87
2021/07/22 00:43:50;;;;;;;10.70;6.85;;;17.10;99.90;;;;;;4917489;29;20090;-87
2021/07/22 00:46:16;;;;;;;13.15;7.55;;;17.00;99.90;;;;;;4917126;29;20027;-86
2021/07/22 00:48:42;;;;;;;10.80;7.63;;;16.90;99.90;;;;;;4948807;29;20055;-87
2021/07/22 00:51:09;;;;;;;9.98;7.15;;;16.80;99.90;;;;;;4917300;29;20091;-86
2021/07/22 00:53:38;;;;;;;11.73;8.00;;;16.70;99.90;;;;;;4945435;29;20032;-86
2021/07/22 00:56:04;;;;;;;11.18;7.45;;;16.70;99.90;;;;;;4932824;29;20031;-86
2021/07/22 00:58:33;;;;;;;10.75;7.80;;;16.60;99.90;;;;;;4932873;29;20096;-86
2021/07/22 01:00:59;;;;;;;10.73;7.88;;;16.60;99.90;;;;;;4932990;29;20062;-87
2021/07/22 01:03:25;;;;;;;9.43;7.15;;;16.60;99.90;;;;;;4932816;29;20024;-86
2021/07/22 01:05:53;;;;;;;9.98;7.05;;;16.50;99.90;;;;;;4933076;29;20035;-87
2021/07/22 01:08:19;;;;;;;11.60;7.65;;;16.50;99.90;;;;;;4932662;29;20036;-86
2021/07/22 01:11:02;;;;;;;10.98;7.35;;;16.50;99.90;;;;;;4935064;29;20028;-87
2021/07/22 01:13:28;;;;;;;9.27;6.75;;;16.50;99.90;;;;;;4932681;29;20087;-87
2021/07/22 01:15:54;;;;;;;10.90;6.70;;;16.50;99.90;;;;;;4929240;29;20115;-86
2021/07/22 01:18:21;;;;;;;10.15;7.35;;;16.50;99.90;;;;;;4898149;29;20032;-86
2021/07/22 01:20:49;;;;;;;10.43;6.90;;;16.50;99.90;;;;;;4898121;29;20028;-87
2021/07/22 01:23:14;;;;;;;9.38;6.43;;;16.40;99.90;;;;;;4897863;29;20462;-86
2021/07/22 01:26:03;;;;;;;12.38;7.35;;;16.40;99.90;;;;;;4916563;29;20512;-87
2021/07/22 01:28:28;;;;;;;12.45;7.70;;;16.50;99.90;;;;;;4897525;29;20044;-87
2021/07/22 01:30:55;;;;;;;9.80;6.95;;;16.50;99.90;;;;;;4897679;29;20033;-86
2021/07/22 01:33:21;;;;;;;10.85;7.43;;;16.40;99.90;;;;;;4897886;29;20103;-86
2021/07/22 01:35:46;;;;;;;10.90;7.93;;;16.30;99.90;;;;;;4913284;29;20032;-87
2021/07/22 01:38:12;;;;;;;12.95;8.18;;;16.20;99.90;;;;;;4897556;29;20036;-86
2021/07/22 01:40:38;;;;;;;10.60;7.05;;;16.30;99.90;;;;;;4897703;29;20032;-86
2021/07/22 01:43:05;;;;;;;10.13;6.68;;;16.30;99.90;;;;;;4897664;29;20060;-86
2021/07/22 01:45:37;;;;;;;11.35;7.43;;;16.30;99.90;;;;;;4898290;29;20039;-86
2021/07/22 01:48:03;;;;;;;12.52;8.10;;;16.30;99.90;;;;;;4896998;29;20083;-87
2021/07/22 01:50:32;;;;;;;10.52;7.43;;;16.20;99.90;;;;;;4897812;29;20058;-87
2021/07/22 01:53:02;;;;;;;11.90;7.53;;;16.10;99.90;;;;;;4908187;29;20035;-86
2021/07/22 01:55:28;;;;;;;11.13;7.50;;;16.20;99.90;;;;;;4916217;29;20036;-87
2021/07/22 01:58:00;;;;;;;12.73;7.18;;;16.20;99.90;;;;;;4931745;29;20023;-87
2021/07/22 02:00:30;;;;;;;10.32;7.22;;;16.20;99.90;;;;;;4931587;29;20042;-86
2021/07/22 02:03:00;;;;;;;13.23;8.15;;;16.10;99.90;;;;;;4931674;29;20027;-86
2021/07/22 02:05:33;;;;;;;11.88;6.68;;;16.10;99.90;;;;;;4931634;29;20102;-86
2021/07/22 02:07:59;;;;;;;11.27;7.53;;;16.10;99.90;;;;;;4947371;29;20117;-86
2021/07/22 02:10:25;;;;;;;10.65;7.75;;;16.00;99.90;;;;;;4915841;29;20050;-86
2021/07/22 02:12:51;;;;;;;11.88;8.02;;;16.00;99.90;;;;;;4931657;29;20036;-87
2021/07/22 02:15:23;;;;;;;11.10;7.20;;;16.00;99.90;;;;;;4936635;29;20091;-87
2021/07/22 02:17:50;;;;;;;12.85;7.03;;;15.90;99.90;;;;;;4966284;29;20121;-86
2021/07/22 02:20:18;;;;;;;12.10;7.60;;;15.90;99.90;;;;;;4950423;29;20121;-87
2021/07/22 02:22:47;;;;;;;10.40;7.78;;;15.90;99.90;;;;;;4950247;29;20027;-86
2021/07/22 02:25:31;;;;;;;13.00;8.32;;;15.80;99.90;;;;;;4953236;29;20090;-86
2021/07/22 02:27:59;;;;;;;13.48;7.63;;;15.80;99.90;;;;;;4950249;29;20047;-87
2021/07/22 02:30:28;;;;;;;12.70;7.90;;;15.80;99.90;;;;;;4950499;29;20023;-86
2021/07/22 02:32:55;;;;;;;12.27;7.70;;;15.80;99.90;;;;;;4934848;29;20039;-87
2021/07/22 02:35:21;;;;;;;11.35;7.13;;;15.80;99.90;;;;;;4934934;29;20115;-86
2021/07/22 02:38:05;;;;;;;10.45;7.05;;;15.80;99.90;;;;;;4952966;29;20039;-86
2021/07/22 02:40:33;;;;;;;12.70;8.10;;;15.80;99.90;;;;;;4966344;29;20043;-86
2021/07/22 02:42:59;;;;;;;13.05;7.95;;;15.80;99.90;;;;;;4950405;29;20035;-86
2021/07/22 02:45:26;;;;;;;12.45;7.03;;;15.90;99.90;;;;;;4934705;29;20095;-86
2021/07/22 02:47:52;;;;;;;11.25;7.60;;;15.90;99.90;;;;;;4949889;29;20051;-85
2021/07/22 02:50:18;;;;;;;12.65;9.00;;;15.90;99.90;;;;;;4950365;29;20034;-86
2021/07/22 02:52:49;;;;;;;16.30;9.85;;;16.00;99.90;;;;;;4937405;29;20485;-86
2021/07/22 02:55:15;;;;;;;12.57;8.23;;;15.90;99.90;;;;;;4896832;29;20032;-86
2021/07/22 02:57:41;;;;;;;14.30;8.93;;;15.90;99.90;;;;;;4896816;29;20063;-86
2021/07/22 03:00:07;;;;;;;12.38;7.82;;;15.90;99.90;;;;;;4896624;29;20035;-86
2021/07/22 03:02:33;;;;;;;14.35;8.30;;;15.90;99.90;;;;;;4912481;29;20036;-86
2021/07/22 03:05:00;;;;;;;12.75;7.85;;;15.90;99.90;;;;;;4896925;29;20064;-86
2021/07/22 03:07:26;;;;;;;16.02;9.00;;;15.90;99.90;;;;;;4912265;29;20064;-86
2021/07/22 03:09:52;;;;;;;11.90;7.70;;;15.90;99.90;;;;;;4896615;29;20036;-86
2021/07/22 03:12:18;;;;;;;12.75;8.30;;;15.80;99.90;;;;;;4898142;29;20032;-86
2021/07/22 03:14:46;;;;;;;14.27;8.55;;;15.80;99.90;;;;;;4900773;29;20032;-86
2021/07/22 03:17:13;;;;;;;14.82;8.75;;;15.80;99.90;;;;;;4953721;29;20035;-86
2021/07/22 03:19:45;;;;;;;14.77;9.65;;;15.80;99.90;;;;;;4953760;29;20034;-86
2021/07/22 03:22:15;;;;;;;15.63;8.90;;;15.90;99.90;;;;;;4953686;29;20027;-87
2021/07/22 03:24:53;;;;;;;14.15;8.50;;;15.80;99.90;;;;;;4955208;29;20031;-86
2021/07/22 03:27:41;;;;;;;12.38;8.38;;;15.80;99.90;;;;;;4953600;29;20035;-86
2021/07/22 03:30:16;;;;;;;13.35;8.43;;;15.80;99.90;;;;;;4954746;29;20042;-87
2021/07/22 03:32:49;;;;;;;14.77;8.45;;;15.70;99.90;;;;;;4969602;29;20403;-87
2021/07/22 03:35:15;;;;;;;14.25;8.27;;;15.70;99.90;;;;;;4953598;29;20103;-86
2021/07/22 03:37:41;;;;;;;16.83;9.32;;;15.70;99.90;;;;;;4953337;29;20058;-86
2021/07/22 03:40:17;;;;;;;15.25;8.90;;;15.70;99.90;;;;;;4938954;29;20047;-87
2021/07/22 03:42:43;;;;;;;14.55;9.25;;;15.70;99.90;;;;;;4953633;29;20035;-87
2021/07/22 03:45:13;;;;;;;14.73;8.38;;;15.70;99.90;;;;;;4953417;29;20036;-86
2021/07/22 03:47:39;;;;;;;10.77;7.03;;;15.70;99.90;;;;;;4952937;29;20047;-87
2021/07/22 03:50:05;;;;;;;18.55;10.90;;;15.60;99.90;;;;;;4953094;29;20031;-87
2021/07/22 03:52:40;;;;;;;14.68;9.32;;;15.60;99.90;;;;;;4941528;29;20496;-87
2021/07/22 03:55:06;;;;;;;16.15;10.02;;;15.60;99.90;;;;;;4899474;29;20485;-87
2021/07/22 03:57:40;;;;;;;15.48;9.38;;;15.60;99.90;;;;;;4900546;29;20032;-87
2021/07/22 04:00:06;;;;;;;16.20;9.57;;;15.60;99.90;;;;;;4899041;29;20040;-87
2021/07/22 04:02:41;;;;;;;13.90;9.68;;;15.70;99.90;;;;;;4916214;29;20031;-87
2021/07/22 04:05:08;;;;;;;16.05;9.75;;;15.60;99.90;;;;;;4899048;29;20036;-87
2021/07/22 04:07:35;;;;;;;12.15;7.72;;;15.60;99.90;;;;;;4898816;29;20051;-87
2021/07/22 04:10:26;;;;;;;11.57;8.02;;;15.60;99.90;;;;;;4914334;29;20100;-87
2021/07/22 04:13:09;;;;;;;12.65;7.18;;;15.60;99.90;;;;;;4914502;29;20540;-87
2021/07/22 04:15:52;;;;;;;13.60;8.98;;;15.60;99.90;;;;;;4931548;29;20121;-87
2021/07/22 04:18:38;;;;;;;16.40;9.57;;;15.70;99.90;;;;;;4940730;29;20034;-88
2021/07/22 04:21:14;;;;;;;15.80;9.30;;;15.60;99.90;;;;;;4934341;29;20035;-88
2021/07/22 04:23:54;;;;;;;15.02;9.30;;;15.60;99.90;;;;;;4932971;29;20066;-88
2021/07/22 04:26:39;;;;;;;14.27;9.27;;;15.60;99.90;;;;;;4935835;29;20540;-88
2021/07/22 04:29:11;;;;;;;16.13;10.05;;;15.70;99.90;;;;;;4933724;29;20122;-88
2021/07/22 04:31:38;;;;;;;15.90;9.85;;;15.70;99.90;;;;;;4932981;29;20028;-88
2021/07/22 04:34:20;;;;;;;16.00;9.38;;;15.70;99.90;;;;;;4934574;29;20055;-89
2021/07/22 04:37:06;;;;;;;14.80;9.07;;;15.70;99.90;;;;;;4935314;29;20148;-88
2021/07/22 04:39:52;;;;;;;16.05;10.25;;;15.80;99.90;;;;;;4921996;29;20036;-89
2021/07/22 04:42:36;;;;;;;11.73;7.72;;;15.80;99.90;;;;;;4934918;29;20047;-87
2021/07/22 04:45:20;;;;;;;12.80;7.50;;;15.90;99.90;;;;;;4935631;29;20047;-89
2021/07/22 04:48:05;;;;;;;12.50;8.00;;;15.90;99.90;;;;;;4934885;29;20095;-88
2021/07/22 04:50:49;;;;;;;13.30;8.75;;;15.90;99.90;;;;;;4948539;29;20043;-88
2021/07/22 04:53:33;;;;;;;14.88;10.48;;;15.90;99.90;;;;;;4946920;29;20028;-88
2021/07/22 04:56:03;;;;;;;14.32;9.50;;;16.10;99.90;;;;;;4948806;29;20054;-88
2021/07/22 04:58:30;;;;;;;15.32;9.45;;;16.20;99.90;;;;;;4933700;29;20126;-88
2021/07/22 05:00:58;;;;;;;14.80;8.02;;;16.20;99.90;;;;;;4933157;29;20035;-88
2021/07/22 05:03:24;;;;;;;14.07;8.13;;;16.20;99.90;;;;;;4932349;29;20032;-88
2021/07/22 05:05:50;;;;;;;21.33;13.40;;;16.20;99.90;;;;;;4932187;29;20027;-87
2021/07/22 05:08:18;;;;;;;19.77;12.15;;;16.20;99.90;;;;;;4949244;29;20043;-88
2021/07/22 05:11:01;;;;;;;16.52;10.48;;;16.30;99.90;;;;;;4933569;29;20036;-89
2021/07/22 05:13:39;;;;;;;16.33;10.35;;;16.40;99.90;;;;;;4921796;29;20036;-88
2021/07/22 05:16:37;;;;;;;14.85;9.45;;;16.50;99.90;;;;;;4928101;29;20030;-88
2021/07/22 05:19:22;;;;;;;15.20;10.30;;;16.60;99.90;;;;;;4905009;29;20056;-88
2021/07/22 05:22:05;;;;;;;21.20;12.48;;;16.60;99.90;;;;;;4932100;29;20170;-88
2021/07/22 05:24:53;;;;;;;22.00;12.98;;;16.50;99.90;;;;;;4927501;29;20054;-89
2021/07/22 05:27:30;;;;;;;22.88;14.30;;;16.50;99.90;;;;;;4917711;29;20035;-88
2021/07/22 05:30:16;;;;;;;20.27;12.60;;;16.50;99.90;;;;;;4918670;29;20189;-89
2021/07/22 05:32:53;;;;;;;21.67;13.82;;;16.60;99.90;;;;;;4917420;29;20042;-88
2021/07/22 05:35:45;;;;;;;23.23;14.65;;;16.60;99.90;;;;;;4927245;29;20032;-87
2021/07/22 05:38:35;;;;;;;25.10;14.77;;;16.60;99.90;;;;;;4899943;29;20051;-88
2021/07/22 05:41:02;;;;;;;20.80;13.07;;;16.70;99.90;;;;;;4912385;29;20501;-88
2021/07/22 05:43:28;;;;;;;16.40;10.48;;;16.90;99.90;;;;;;4915943;29;20046;-88
2021/07/22 05:45:55;;;;;;;19.50;13.15;;;17.00;99.90;;;;;;4930883;29;20477;-88
2021/07/22 05:48:21;;;;;;;17.98;12.40;;;17.00;99.90;;;;;;4925743;29;20062;-88
2021/07/22 05:50:47;;;;;;;21.55;14.20;;;17.00;99.90;;;;;;4931152;29;20032;-88
2021/07/22 05:53:13;;;;;;;22.63;13.30;;;17.00;99.90;;;;;;4940725;29;20036;-88
2021/07/22 05:55:40;;;;;;;20.15;13.48;;;17.00;99.90;;;;;;4946999;29;20038;-88
2021/07/22 05:58:06;;;;;;;22.83;14.30;;;17.00;99.90;;;;;;4931205;29;20035;-88
2021/07/22 06:00:31;;;;;;;23.25;14.43;;;17.00;99.90;;;;;;4931190;29;20042;-86
2021/07/22 06:02:57;;;;;;;19.90;12.35;;;17.10;99.90;;;;;;4947301;29;20062;-87
2021/07/22 06:05:22;;;;;;;23.05;15.30;;;17.20;99.90;;;;;;4931285;29;20035;-87
2021/07/22 06:07:48;;;;;;;18.65;13.43;;;17.30;99.90;;;;;;4946553;29;20173;-86
2021/07/22 06:10:14;;;;;;;17.67;11.48;;;17.50;99.90;;;;;;4931008;29;20024;-86
2021/07/22 06:12:41;;;;;;;21.08;13.93;;;17.50;99.90;;;;;;4930797;29;20043;-86
2021/07/22 06:15:10;;;;;;;;;;;17.30;99.90;;;;;;4928566;29;20030;-86
2021/07/22 06:17:37;;;;;;;18.23;12.05;;;17.40;99.90;;;;;;4911276;29;19958;-86
2021/07/22 06:20:06;;;;;;;24.30;14.18;;;17.40;99.90;;;;;;4912081;29;20560;-85
2021/07/22 06:22:34;;;;;;;21.52;13.63;;;17.40;99.90;;;;;;4911997;29;20046;-86
2021/07/22 06:25:00;;;;;;;20.33;12.68;;;17.60;99.90;;;;;;4912059;29;20032;-86
2021/07/22 06:27:26;;;;;;;15.95;11.35;;;17.80;99.90;;;;;;4911810;29;20123;-85
2021/07/22 06:29:52;;;;;;;12.88;8.98;;;18.10;99.90;;;;;;4911903;29;20042;-86
2021/07/22 06:32:17;;;;;;;15.43;10.13;;;18.20;99.90;;;;;;4911845;29;20408;-85
2021/07/22 06:34:43;;;;;;;13.30;9.20;;;18.10;99.90;;;;;;4911836;29;20040;-85
2021/07/22 06:37:09;;;;;;;16.88;11.38;;;18.30;99.90;;;;;;4927637;29;20127;-86
2021/07/22 06:39:44;;;;;;;12.10;8.95;;;18.50;99.90;;;;;;4913210;29;20164;-85
2021/07/22 06:42:10;;;;;;;11.30;8.85;;;18.70;99.90;;;;;;4911627;29;20493;-86
2021/07/22 06:44:36;;;;;;;11.38;8.60;;;18.90;99.90;;;;;;4911894;29;20040;-86
2021/07/22 06:47:02;;;;;;;17.20;12.70;;;19.00;99.90;;;;;;4914531;29;20036;-85
2021/07/22 06:49:28;;;;;;;18.23;11.88;;;19.00;99.90;;;;;;4934407;29;20145;-85
2021/07/22 06:51:53;;;;;;;20.55;14.07;;;19.00;99.90;;;;;;4934369;29;20032;-85
2021/07/22 06:54:20;;;;;;;21.55;16.02;;;18.80;99.90;;;;;;4918616;29;20178;-86
2021/07/22 06:56:46;;;;;;;21.40;13.70;;;18.80;99.90;;;;;;4934149;29;20039;-86
2021/07/22 06:59:12;;;;;;;20.17;13.80;;;19.00;99.90;;;;;;4934080;29;20036;-86
2021/07/22 07:01:38;;;;;;;21.52;16.67;;;19.00;99.90;;;;;;4918719;29;20031;-86
2021/07/22 07:04:04;;;;;;;19.50;13.27;;;19.00;99.90;;;;;;4934440;29;20036;-86
2021/07/22 07:06:33;;;;;;;22.10;14.88;;;18.90;99.90;;;;;;4934169;29;20032;-85
2021/07/22 07:08:59;;;;;;;19.40;15.25;;;19.00;99.90;;;;;;4918181;29;20048;-86
2021/07/22 07:11:25;;;;;;;27.27;17.10;;;18.90;99.90;;;;;;4918162;29;20038;-86
2021/07/22 07:13:50;;;;;;;17.63;12.43;;;18.90;99.90;;;;;;4918119;29;20064;-86
2021/07/22 07:16:16;;;;;;;20.23;13.30;;;19.20;99.90;;;;;;4945793;29;20032;-85
2021/07/22 07:18:42;;;;;;;19.45;12.80;;;19.30;99.90;;;;;;4952868;29;20051;-85
2021/07/22 07:21:07;;;;;;;18.80;12.55;;;19.50;99.90;;;;;;4952925;29;20031;-85
2021/07/22 07:23:34;;;;;;;23.02;16.50;;;19.70;99.90;;;;;;4936767;29;20035;-85
2021/07/22 07:26:00;;;;;;;20.25;14.48;;;19.40;99.90;;;;;;4936831;29;20031;-85
2021/07/22 07:28:26;;;;;;;18.25;13.00;;;19.50;99.90;;;;;;4936677;29;20047;-86
2021/07/22 07:30:52;;;;;;;15.48;10.82;;;19.90;99.90;;;;;;4936645;29;20027;-85
2021/07/22 07:33:18;;;;;;;16.92;12.40;;;20.20;99.90;;;;;;4952687;29;20070;-85
2021/07/22 07:35:44;;;;;;;19.35;14.30;;;19.90;99.90;;;;;;4952508;29;20031;-85
2021/07/22 07:38:09;;;;;;;15.50;11.20;;;19.90;99.90;;;;;;4952513;29;20063;-85
2021/07/22 07:40:35;;;;;;;18.85;13.13;;;20.20;99.90;;;;;;4952448;29;20049;-85
2021/07/22 07:43:01;;;;;;;16.55;11.10;;;20.20;99.90;;;;;;4952431;29;20074;-85
2021/07/22 07:45:28;;;;;;;16.80;11.68;;;20.40;99.90;;;;;;4936557;29;20086;-84
2021/07/22 07:47:54;;;;;;;16.40;12.45;;;20.00;99.90;;;;;;4934794;23;20157;-85
2021/07/22 07:50:20;;;;;;;16.52;12.07;;;19.80;99.90;;;;;;4917720;29;20099;-84
2021/07/22 07:52:46;;;;;;;15.38;11.60;;;19.70;99.90;;;;;;4917287;29;20047;-83
2021/07/22 07:55:13;;;;;;;14.65;10.20;;;20.20;99.90;;;;;;4949279;29;20031;-84
2021/07/22 07:57:39;;;;;;;19.77;12.80;;;20.50;99.90;;;;;;4932750;29;20036;-84
2021/07/22 08:00:06;;;;;;;19.90;11.70;;;19.80;99.90;;;;;;4949043;29;20039;-84
2021/07/22 08:02:38;;;;;;;16.60;12.02;;;19.90;99.90;;;;;;4949046;29;20123;-84
2021/07/22 08:05:04;;;;;;;13.50;9.73;;;20.20;99.90;;;;;;4933098;29;20107;-85
2021/07/22 08:07:29;;;;;;;11.60;8.18;;;20.50;99.90;;;;;;4932873;29;20375;-84
2021/07/22 08:09:55;;;;;;;13.95;10.48;;;20.50;99.90;;;;;;4948834;29;20099;-85
2021/07/22 08:12:21;;;;;;;20.50;12.55;;;19.80;99.90;;;;;;4933009;29;20036;-84
2021/07/22 08:14:46;;;;;;;17.63;11.80;;;19.60;99.90;;;;;;4948792;29;20042;-84
2021/07/22 08:17:16;;;;;;;19.38;13.40;;;19.30;99.90;;;;;;4967879;29;20059;-84
2021/07/22 08:19:42;;;;;;;;;;;19.10;99.90;;;;;;4968391;29;20042;-84
2021/07/22 08:22:11;;;;;;;17.30;12.13;;;19.20;99.90;;;;;;4952092;29;20374;-85
2021/07/22 08:24:37;;;;;;;23.10;14.02;;;19.50;99.90;;;;;;4968049;29;20042;-84
2021/07/22 08:27:04;;;;;;;21.55;14.30;;;20.00;99.90;;;;;;4967666;29;20038;-83
2021/07/22 08:29:29;;;;;;;12.48;9.90;;;20.30;99.90;;;;;;4951327;29;20081;-84
2021/07/22 08:31:55;;;;;;;10.15;7.90;;;21.40;99.90;;;;;;4951904;29;20031;-85
2021/07/22 08:34:21;;;;;;;13.50;9.73;;;22.00;99.90;;;;;;4967667;29;20103;-85
2021/07/22 08:36:47;;;;;;;15.63;9.70;;;22.10;99.90;;;;;;4951540;29;20035;-85
2021/07/22 08:39:12;;;;;;;14.13;9.75;;;22.20;99.90;;;;;;4951319;29;20133;-85
2021/07/22 08:41:46;;;;;;;13.43;9.85;;;22.10;99.90;;;;;;4951678;29;20087;-85
2021/07/22 08:44:13;;;;;;;10.13;8.25;;;21.70;99.90;;;;;;4967334;29;20031;-85
2021/07/22 08:46:44;;;;;;;10.48;8.88;;;21.50;99.90;;;;;;4951358;29;20122;-86
2021/07/22 08:49:10;;;;;;;13.25;9.10;;;21.80;99.90;;;;;;4950676;29;20051;-85
2021/07/22 08:51:36;;;;;;;9.82;6.95;;;21.70;99.90;;;;;;4967321;29;20031;-86
2021/07/22 08:54:02;;;;;;;10.38;8.20;;;21.40;99.90;;;;;;4913166;29;20091;-85
2021/07/22 08:56:28;;;;;;;8.55;6.50;;;20.50;99.90;;;;;;4913256;29;20028;-84
2021/07/22 08:58:56;;;;;;;8.77;6.05;;;20.50;99.90;;;;;;4897344;29;20036;-84
2021/07/22 09:01:25;;;;;;;13.48;7.07;;;21.20;99.90;;;;;;4897299;29;20388;-85
2021/07/22 09:03:52;;;;;;;13.70;8.57;;;21.50;99.90;;;;;;4897285;29;20060;-84
2021/07/22 09:06:19;;;;;;;11.80;7.93;;;21.20;99.90;;;;;;4897447;29;20032;-84
2021/07/22 09:08:45;;;;;;;8.40;5.60;;;21.50;99.90;;;;;;4912448;29;20044;-84
2021/07/22 09:11:11;;;;;;;9.82;6.43;;;22.40;99.90;;;;;;4896628;29;20365;-84
2021/07/22 09:13:37;;;;;;;11.05;5.85;;;22.50;99.90;;;;;;4912607;29;20040;-84
2021/07/22 09:16:04;;;;;;;7.20;5.70;;;22.90;99.90;;;;;;4916901;29;20388;-84
2021/07/22 09:18:34;;;;;;;7.20;5.28;;;22.80;99.90;;;;;;4950382;29;20126;-84
2021/07/22 09:21:17;;;;;;;;;;;22.20;99.90;;;;;;4966975;29;20519;-85
2021/07/22 09:24:01;;;;;;;9.68;6.35;;;21.40;99.90;;;;;;4966633;29;20264;-85
2021/07/22 09:26:35;;;;;;;8.05;6.30;;;20.90;99.90;;;;;;4950772;29;20395;-84
2021/07/22 09:29:08;;;;;;;7.15;5.80;;;21.20;99.90;;;;;;4950018;29;20051;-84
2021/07/22 09:31:35;;;;;;;11.40;7.25;;;21.70;99.90;;;;;;4966375;29;20502;-84
2021/07/22 09:34:01;;;;;;;8.07;5.35;;;21.60;99.90;;;;;;4950243;29;20039;-84
2021/07/22 09:36:32;;;;;;;8.23;5.70;;;22.30;99.90;;;;;;4950352;29;20038;-84
2021/07/22 09:39:21;;;;;;;7.63;5.60;;;22.10;99.90;;;;;;4950200;29;20035;-85
2021/07/22 09:42:06;;;;;;;5.72;4.97;;;21.50;99.90;;;;;;4950430;29;20035;-85
2021/07/22 09:44:33;;;;;;;8.93;6.32;;;21.00;99.90;;;;;;4950153;29;20046;-85
2021/07/22 09:47:00;;;;;;;6.18;5.13;;;20.80;99.90;;;;;;4965985;29;20054;-84
2021/07/22 09:49:31;;;;;;;6.20;4.68;;;20.80;99.90;;;;;;4949871;29;20086;-84
2021/07/22 09:52:01;;;;;;;7.40;4.70;;;21.20;99.90;;;;;;4947253;29;20453;-84
2021/07/22 09:54:31;;;;;;;;;;;21.30;99.90;;;;;;4931683;29;20470;-84
2021/07/22 09:56:58;;;;;;;8.25;4.97;;;21.40;99.90;;;;;;4915162;29;19917;-84
2021/07/22 09:59:24;;;;;;;9.45;6.35;;;21.40;99.90;;;;;;4915088;29;20046;-84
2021/07/22 10:01:56;;;;;;;7.75;5.93;;;22.00;99.90;;;;;;4915122;29;20184;-84
2021/07/22 10:04:23;;;;;;;11.65;6.68;;;22.00;99.90;;;;;;4915176;29;20047;-84
2021/07/22 10:06:49;;;;;;;6.88;5.47;;;22.10;99.90;;;;;;4930840;29;20032;-83
2021/07/22 10:09:20;;;;;;;5.65;4.38;;;22.10;99.90;;;;;;4930543;29;20079;-84
2021/07/22 10:11:46;;;;;;;6.28;5.15;;;21.80;99.90;;;;;;4914943;29;20035;-84
2021/07/22 10:14:16;;;;;;;8.85;5.15;;;21.50;99.90;;;;;;4930850;29;20472;-84
2021/07/22 10:16:42;;;;;;;;;;;21.40;99.90;;;;;;4930111;29;20057;-84
2021/07/22 10:19:10;;;;;;;7.22;4.72;;;21.40;99.90;;;;;;4933878;29;19917;-84
2021/07/22 10:21:35;;;;;;;6.65;4.50;;;21.40;99.90;;;;;;4949630;29;20039;-84
2021/07/22 10:24:02;;;;;;;8.63;5.28;;;21.50;99.90;;;;;;4949800;29;20035;-84
2021/07/22 10:26:28;;;;;;;8.95;5.30;;;21.40;99.90;;;;;;4949653;29;20039;-84
2021/07/22 10:28:54;;;;;;;8.00;5.47;;;21.40;99.90;;;;;;4949459;29;20043;-85
2021/07/22 10:31:20;;;;;;;10.57;5.03;;;21.40;99.90;;;;;;4949733;29;20032;-84
2021/07/22 10:33:46;;;;;;;6.22;5.00;;;21.60;99.90;;;;;;4949540;29;20035;-83
2021/07/22 10:36:13;;;;;;;7.40;3.90;;;21.60;99.90;;;;;;4949593;29;20059;-84
2021/07/22 10:38:47;;;;;;;6.40;4.78;;;22.20;99.90;;;;;;4965416;29;20046;-83
2021/07/22 10:41:32;;;;;;;6.80;4.07;;;21.90;99.90;;;;;;4949331;29;20035;-84
2021/07/22 10:43:59;;;;;;;5.75;4.57;;;22.40;99.90;;;;;;4965609;29;20027;-84
2021/07/22 10:46:30;;;;;;;6.72;4.82;;;22.10;99.90;;;;;;4965217;29;20039;-84
2021/07/22 10:49:13;;;;;;;6.95;4.80;;;22.10;99.90;;;;;;4965046;29;20055;-85
2021/07/22 10:51:42;;;;;;;6.20;4.82;;;21.90;99.90;;;;;;4948814;29;20027;-85
2021/07/22 10:54:08;;;;;;;7.87;5.00;;;22.10;99.90;;;;;;4947465;29;20032;-85
2021/07/22 10:56:43;;;;;;;7.00;4.20;;;22.10;99.90;;;;;;4930232;29;20303;-85
2021/07/22 10:59:11;;;;;;;4.75;3.30;;;22.50;99.90;;;;;;4899833;29;20040;-85
2021/07/22 11:01:43;;;;;;;8.43;3.95;;;22.50;99.90;;;;;;4896037;29;20122;-86
2021/07/22 11:04:21;;;;;;;6.03;3.60;;;22.10;99.90;;;;;;4895796;29;20039;-86
2021/07/22 11:06:59;;;;;;;5.85;3.38;;;22.30;99.90;;;;;;4895726;29;20035;-86
2021/07/22 11:09:47;;;;;;;5.15;3.20;;;22.60;99.90;;;;;;4911118;29;20067;-85
2021/07/22 11:12:44;;;;;;;5.53;4.43;;;22.90;99.90;;;;;;4911119;29;20055;-85
2021/07/22 11:15:48;;;;;;;5.93;4.57;;;22.70;99.90;;;;;;4917289;29;20027;-87
2021/07/22 11:18:44;;;;;;;5.28;2.83;;;22.90;99.90;;;;;;4891173;29;20078;-87
2021/07/22 11:21:12;;;;;;;5.32;3.92;;;23.20;99.90;;;;;;4891451;29;20044;-87
2021/07/22 11:23:39;;;;;;;4.53;3.17;;;23.00;99.90;;;;;;4891682;29;20510;-88
2021/07/22 11:26:04;;;;;;;6.80;4.18;;;23.50;99.90;;;;;;4891249;29;20552;-87
2021/07/22 11:28:30;;;;;;;6.03;4.38;;;23.00;99.90;;;;;;4890987;29;20051;-88
2021/07/22 11:31:03;;;;;;;6.25;4.05;;;22.80;99.90;;;;;;4891550;29;20032;-88
2021/07/22 11:33:38;;;;;;;5.50;3.83;;;23.00;99.90;;;;;;4893008;29;20504;-88
2021/07/22 11:36:06;;;;;;;5.55;3.80;;;23.00;99.90;;;;;;4894830;29;20037;-88
2021/07/22 11:38:33;;;;;;;6.38;3.80;;;22.90;99.90;;;;;;4894869;29;20050;-89
2021/07/22 11:40:59;;;;;;;6.10;3.65;;;22.60;99.90;;;;;;4870431;29;20458;-87
2021/07/22 11:43:31;;;;;;;4.35;2.42;;;22.40;99.90;;;;;;4876227;29;20041;-88
2021/07/22 11:46:32;;;;;;;5.78;3.78;;;22.40;99.90;;;;;;4891623;29;20040;-88
2021/07/22 11:49:03;;;;;;;3.65;2.55;;;22.40;99.90;;;;;;4860755;29;20060;-88
2021/07/22 11:51:28;;;;;;;4.68;2.35;;;23.10;99.90;;;;;;4860269;29;20041;-87
2021/07/22 11:53:56;;;;;;;5.75;3.42;;;24.20;99.90;;;;;;4891733;29;20097;-87
2021/07/22 11:56:22;;;;;;;5.45;3.17;;;23.60;99.90;;;;;;4891912;29;20064;-88
2021/07/22 11:58:51;;;;;;;5.05;2.67;;;23.00;99.90;;;;;;4876002;29;20037;-88
2021/07/22 12:01:18;;;;;;;5.88;3.53;;;23.80;99.90;;;;;;4891773;29;20040;-87
2021/07/22 12:03:48;;;;;;;5.50;4.07;;;23.80;99.90;;;;;;4875663;29;20045;-87
2021/07/22 12:06:20;;;;;;;6.55;4.47;;;23.00;99.90;;;;;;4891587;29;20104;-88
2021/07/22 12:08:46;;;;;;;6.05;2.97;;;23.00;99.90;;;;;;4891307;29;20087;-87
2021/07/22 12:11:12;;;;;;;4.75;3.65;;;23.40;99.90;;;;;;4876065;29;20029;-87
2021/07/22 12:13:51;;;;;;;6.13;4.18;;;24.00;99.90;;;;;;4875558;29;20048;-89
2021/07/22 12:16:22;;;;;;;4.93;2.63;;;23.90;99.90;;;;;;4871883;29;20037;-87
2021/07/22 12:18:53;;;;;;;7.25;4.65;;;24.30;99.90;;;;;;4872011;29;20171;-88
2021/07/22 12:21:20;;;;;;;5.47;4.30;;;24.00;99.90;;;;;;4873732;29;20040;-88
2021/07/22 12:23:45;;;;;;;6.03;3.70;;;23.00;99.90;;;;;;4872575;29;20085;-88
2021/07/22 12:26:15;;;;;;;8.07;4.65;;;23.00;99.90;;;;;;4910893;29;20040;-88
2021/07/22 12:28:41;;;;;;;3.25;2.40;;;22.80;99.90;;;;;;4913787;29;20047;-88
2021/07/22 12:31:18;;;;;;;2.72;2.20;;;23.00;99.90;;;;;;4930080;29;20043;-87
2021/07/22 12:33:59;;;;;;;3.95;1.95;;;23.70;99.90;;;;;;4913703;29;20115;-88
2021/07/22 12:36:24;;;;;;;4.47;2.80;;;23.90;99.90;;;;;;4913869;29;20032;-87
2021/07/22 12:39:08;;;;;;;3.17;2.17;;;23.80;99.90;;;;;;4913677;29;20059;-87
2021/07/22 12:41:34;;;;;;;3.10;2.08;;;24.10;99.90;;;;;;4930937;29;20028;-87
2021/07/22 12:44:00;;;;;;;4.10;2.47;;;23.70;99.90;;;;;;4913359;29;20036;-87
2021/07/22 12:46:30;;;;;;;2.50;1.30;;;23.40;99.90;;;;;;4913363;29;20489;-87
2021/07/22 12:48:56;;;;;;;3.78;2.75;;;23.50;99.90;;;;;;4913275;29;20123;-87
2021/07/22 12:51:22;;;;;;;6.65;3.60;;;23.20;99.90;;;;;;4913585;29;20158;-87
2021/07/22 12:53:49;;;;;;;4.32;3.40;;;22.90;99.90;;;;;;4916463;29;20511;-88